createdAt,value
2023-01-26T00:01:28.487Z,24.57
2023-01-26T00:03:57.357Z,23.10
2023-01-26T00:06:27.443Z,23.17
2023-01-26T00:08:57.726Z,24.33
2023-01-26T00:11:27.805Z,23.40
2023-01-26T00:13:56.574Z,25.07
2023-01-26T00:16:24.801Z,25.23
2023-01-26T00:18:52.560Z,23.30
2023-01-26T00:21:22.743Z,25.67
2023-01-26T00:23:51.763Z,25.73
2023-01-26T00:26:22.477Z,23.53
2023-01-26T00:28:50.833Z,25.87
2023-01-26T00:31:21.218Z,24.93
2023-01-26T00:33:49.412Z,22.67
2023-01-26T00:36:17.264Z,26.13
2023-01-26T00:38:45.270Z,23.97
2023-01-26T00:41:33.272Z,25.23
2023-01-26T00:44:02.695Z,27.37
2023-01-26T00:46:30.555Z,27.63
2023-01-26T00:49:00.624Z,26.43
2023-01-26T00:51:28.556Z,23.50
2023-01-26T00:53:56.372Z,24.53
2023-01-26T00:56:27.887Z,24.80
2023-01-26T00:58:55.639Z,23.63
2023-01-26T01:01:24.768Z,24.43
2023-01-26T01:03:52.567Z,25.50
2023-01-26T01:06:20.435Z,26.43
2023-01-26T01:08:48.254Z,23.70
2023-01-26T01:11:16.148Z,25.47
2023-01-26T01:13:43.872Z,25.43
2023-01-26T01:16:14.458Z,24.57
2023-01-26T01:18:44.665Z,27.37
2023-01-26T01:21:14.290Z,24.23
2023-01-26T01:23:42.557Z,26.53
2023-01-26T01:26:11.212Z,23.90
2023-01-26T01:28:39.821Z,28.00
2023-01-26T01:31:08.581Z,26.77
2023-01-26T01:33:36.397Z,26.13
2023-01-26T01:36:07.982Z,23.30
2023-01-26T01:38:36.354Z,25.27
2023-01-26T01:41:04.137Z,23.13
2023-01-26T01:43:31.918Z,24.57
2023-01-26T01:46:01.580Z,24.97
2023-01-26T01:48:32.261Z,25.57
2023-01-26T01:51:05.571Z,24.40
2023-01-26T01:53:38.641Z,23.23
2023-01-26T01:56:11.241Z,22.70
2023-01-26T01:58:42.878Z,22.07
2023-01-26T02:01:11.624Z,23.90
2023-01-26T02:03:40.184Z,21.23
2023-01-26T02:06:13.271Z,24.37
2023-01-26T02:08:46.197Z,26.47
2023-01-26T02:11:17.390Z,22.43
2023-01-26T02:13:48.881Z,23.40
2023-01-26T02:16:16.805Z,24.37
2023-01-26T02:18:45.874Z,24.00
2023-01-26T02:21:17.724Z,23.93
2023-01-26T02:24:02.669Z,23.80
2023-01-26T02:26:34.287Z,23.70
2023-01-26T02:29:03.746Z,23.60
2023-01-26T02:31:32.364Z,22.57
2023-01-26T02:34:00.235Z,23.43
2023-01-26T02:36:29.928Z,24.17
2023-01-26T02:39:15.989Z,20.70
2023-01-26T02:42:02.789Z,23.13
2023-01-26T02:44:31.742Z,20.83
2023-01-26T02:46:59.411Z,21.30
2023-01-26T02:49:44.705Z,20.63
2023-01-26T02:52:12.456Z,24.23
2023-01-26T02:54:57.852Z,26.10
2023-01-26T02:57:27.295Z,25.07
2023-01-26T02:59:55.041Z,21.33
2023-01-26T03:02:23.154Z,23.33
2023-01-26T03:04:50.843Z,23.30
2023-01-26T03:07:18.730Z,23.23
2023-01-26T03:09:46.440Z,23.63
2023-01-26T03:12:14.189Z,21.83
2023-01-26T03:14:43.326Z,21.87
2023-01-26T03:17:11.032Z,24.43
2023-01-26T03:19:56.623Z,22.47
2023-01-26T03:22:41.842Z,22.03
2023-01-26T03:25:28.405Z,22.87
2023-01-26T03:27:56.122Z,20.80
2023-01-26T03:30:25.256Z,22.40
2023-01-26T03:32:52.953Z,22.97
2023-01-26T03:35:22.961Z,21.43
2023-01-26T03:37:54.858Z,23.73
2023-01-26T03:40:40.197Z,23.33
2023-01-26T03:43:28.419Z,22.00
2023-01-26T03:46:15.141Z,24.77
2023-01-26T03:49:00.541Z,23.60
2023-01-26T03:51:46.046Z,21.47
2023-01-26T03:54:31.426Z,23.83
2023-01-26T03:56:59.098Z,23.53
2023-01-26T03:59:38.596Z,20.33
2023-01-26T04:02:26.481Z,23.37
2023-01-26T04:05:11.799Z,23.97
2023-01-26T04:07:57.575Z,23.40
2023-01-26T04:10:25.747Z,26.17
2023-01-26T04:13:11.087Z,26.87
2023-01-26T04:15:56.883Z,23.53
2023-01-26T04:18:43.475Z,23.17
2023-01-26T04:21:30.270Z,24.43
2023-01-26T04:23:59.332Z,23.23
2023-01-26T04:26:34.613Z,24.20
2023-01-26T04:29:03.422Z,23.23
2023-01-26T04:31:31.348Z,23.57
2023-01-26T04:34:00.928Z,24.07
2023-01-26T04:36:28.916Z,22.43
2023-01-26T04:38:57.233Z,25.93
2023-01-26T04:41:25.173Z,26.03
2023-01-26T04:43:52.855Z,21.70
2023-01-26T04:46:20.524Z,25.43
2023-01-26T04:48:48.295Z,27.00
2023-01-26T04:51:19.993Z,23.03
2023-01-26T04:53:48.081Z,27.33
2023-01-26T04:56:21.402Z,26.77
2023-01-26T04:58:49.078Z,25.37
2023-01-26T05:01:16.824Z,26.27
2023-01-26T05:03:44.720Z,24.03
2023-01-26T05:06:12.741Z,23.83
2023-01-26T05:08:41.821Z,23.53
2023-01-26T05:11:09.518Z,20.10
2023-01-26T05:13:37.499Z,23.27
2023-01-26T05:16:06.310Z,20.13
2023-01-26T05:18:33.970Z,21.70
2023-01-26T05:21:01.768Z,19.43
2023-01-26T05:23:29.664Z,20.33
2023-01-26T05:25:58.709Z,17.90
2023-01-26T05:28:26.421Z,19.30
2023-01-26T05:30:54.126Z,19.43
2023-01-26T05:33:22.281Z,19.30
2023-01-26T05:35:50.086Z,18.50
2023-01-26T05:38:17.991Z,17.60
2023-01-26T05:40:45.914Z,19.63
2023-01-26T05:43:15.351Z,17.30
2023-01-26T05:45:43.068Z,18.03
2023-01-26T05:48:10.824Z,18.27
2023-01-26T05:50:38.665Z,17.37
2023-01-26T05:53:06.461Z,17.17
2023-01-26T05:55:34.219Z,16.20
2023-01-26T05:58:01.977Z,16.73
2023-01-26T06:00:31.397Z,17.70
2023-01-26T06:02:59.064Z,14.60
2023-01-26T06:05:26.853Z,15.97
2023-01-26T06:07:54.542Z,13.47
2023-01-26T06:10:22.257Z,13.73
2023-01-26T06:12:49.938Z,14.90
2023-01-26T06:15:17.677Z,15.10
2023-01-26T06:17:46.781Z,16.33
2023-01-26T06:20:14.810Z,13.60
2023-01-26T06:22:42.621Z,15.63
2023-01-26T06:25:10.775Z,16.83
2023-01-26T06:27:42.236Z,16.43
2023-01-26T06:30:11.848Z,16.23
2023-01-26T06:32:39.751Z,16.33
2023-01-26T06:35:09.914Z,17.50
2023-01-26T06:37:37.724Z,16.07
2023-01-26T06:40:06.349Z,16.57
2023-01-26T06:42:34.004Z,13.87
2023-01-26T06:45:01.810Z,15.10
2023-01-26T06:47:29.683Z,16.37
2023-01-26T06:49:57.377Z,16.20
2023-01-26T06:52:32.134Z,16.37
2023-01-26T06:55:01.393Z,15.37
2023-01-26T06:57:29.108Z,14.93
2023-01-26T06:59:57.623Z,13.10
2023-01-26T07:02:25.427Z,13.00
2023-01-26T07:04:53.514Z,14.70
2023-01-26T07:07:21.414Z,17.00
2023-01-26T07:09:50.457Z,13.50
2023-01-26T07:12:18.132Z,15.13
2023-01-26T07:14:46.034Z,15.60
2023-01-26T07:17:13.834Z,15.47
2023-01-26T07:19:41.526Z,15.27
2023-01-26T07:22:09.744Z,16.77
2023-01-26T07:24:37.719Z,16.27
2023-01-26T07:27:07.359Z,16.43
2023-01-26T07:29:35.045Z,16.70
2023-01-26T07:32:02.792Z,16.53
2023-01-26T07:34:30.507Z,17.60
2023-01-26T07:36:58.261Z,14.70
2023-01-26T07:39:26.802Z,14.93
2023-01-26T07:41:54.662Z,15.63
2023-01-26T07:44:23.726Z,16.33
2023-01-26T07:46:51.471Z,17.37
2023-01-26T07:49:19.268Z,17.20
2023-01-26T07:51:46.957Z,16.23
2023-01-26T07:54:14.649Z,17.07
2023-01-26T07:56:44.117Z,16.40
2023-01-26T07:59:12.953Z,15.37
2023-01-26T08:01:41.996Z,16.83
2023-01-26T08:04:09.756Z,16.93
2023-01-26T08:06:37.551Z,14.33
2023-01-26T08:09:05.523Z,15.53
2023-01-26T08:11:33.260Z,13.10
2023-01-26T08:14:00.957Z,15.17
2023-01-26T08:16:28.854Z,15.73
2023-01-26T08:18:57.958Z,15.73
2023-01-26T08:21:25.776Z,17.07
2023-01-26T08:23:53.509Z,15.97
2023-01-26T08:26:21.656Z,15.47
2023-01-26T08:28:49.692Z,16.50
2023-01-26T08:31:20.319Z,15.20
2023-01-26T08:33:50.663Z,14.43
2023-01-26T08:36:22.396Z,14.37
2023-01-26T08:38:50.667Z,14.20
2023-01-26T08:41:18.385Z,14.93
2023-01-26T08:43:46.063Z,14.53
2023-01-26T08:46:13.803Z,15.33
2023-01-26T08:48:41.716Z,13.20
2023-01-26T08:51:09.833Z,13.10
2023-01-26T08:53:39.145Z,12.80
2023-01-26T08:56:09.493Z,10.70
2023-01-26T08:58:37.360Z,12.63
2023-01-26T09:01:06.182Z,12.93
2023-01-26T09:03:33.966Z,13.33
2023-01-26T09:06:02.370Z,11.23
2023-01-26T09:08:30.083Z,10.47
2023-01-26T09:10:59.218Z,12.17
2023-01-26T09:13:27.013Z,10.57
2023-01-26T09:15:55.567Z,11.73
2023-01-26T09:18:23.272Z,12.27
2023-01-26T09:20:55.885Z,10.00
2023-01-26T09:23:23.581Z,10.43
2023-01-26T09:25:54.235Z,11.73
2023-01-26T09:28:23.300Z,10.07
2023-01-26T09:30:51.334Z,11.80
2023-01-26T09:33:21.517Z,12.27
2023-01-26T09:35:50.028Z,11.17
2023-01-26T09:38:21.259Z,10.77
2023-01-26T09:41:03.322Z,10.70
2023-01-26T09:43:39.299Z,11.80
2023-01-26T09:46:20.360Z,10.93
2023-01-26T09:48:55.920Z,9.80
2023-01-26T09:51:29.506Z,12.13
2023-01-26T09:54:00.423Z,12.20
2023-01-26T09:56:32.513Z,10.93
2023-01-26T09:59:07.922Z,9.07
2023-01-26T10:01:41.612Z,9.23
2023-01-26T10:04:23.213Z,9.37
2023-01-26T10:06:54.642Z,9.30
2023-01-26T10:09:25.414Z,9.27
2023-01-26T10:11:57.385Z,10.07
2023-01-26T10:14:34.572Z,9.07
2023-01-26T10:17:04.812Z,10.23
2023-01-26T10:19:37.373Z,9.00
2023-01-26T10:22:11.719Z,10.53
2023-01-26T10:24:40.848Z,10.33
2023-01-26T10:27:14.140Z,9.30
2023-01-26T10:29:43.281Z,8.50
2023-01-26T10:32:15.506Z,7.73
2023-01-26T10:34:44.393Z,8.50
2023-01-26T10:37:22.476Z,9.17
2023-01-26T10:40:07.431Z,8.23
2023-01-26T10:42:36.937Z,7.90
2023-01-26T10:45:08.728Z,7.07
2023-01-26T10:47:36.462Z,7.27
2023-01-26T10:50:25.163Z,8.10
2023-01-26T10:52:59.684Z,6.87
2023-01-26T10:55:27.787Z,7.10
2023-01-26T10:57:55.517Z,6.93
2023-01-26T11:00:31.524Z,15.60
2023-01-26T11:03:06.606Z,6.20
2023-01-26T11:05:34.675Z,7.17
2023-01-26T11:08:03.631Z,6.33
2023-01-26T11:10:33.214Z,7.77
2023-01-26T11:13:09.988Z,7.87
2023-01-26T11:15:41.377Z,9.30
2023-01-26T11:18:19.653Z,11.37
2023-01-26T11:20:53.479Z,8.67
2023-01-26T11:23:33.015Z,11.43
2023-01-26T11:26:26.913Z,10.80
2023-01-26T11:29:11.097Z,18.93
2023-01-26T11:31:51.065Z,10.57
2023-01-26T11:34:29.496Z,15.47
2023-01-26T11:37:20.132Z,18.00
2023-01-26T11:40:01.733Z,10.87
2023-01-26T11:42:39.755Z,12.30
2023-01-26T11:45:22.013Z,7.73
2023-01-26T11:48:04.636Z,8.23
2023-01-26T11:50:36.456Z,7.47
2023-01-26T11:53:38.065Z,8.10
2023-01-26T11:56:17.232Z,5.73
2023-01-26T11:58:50.712Z,6.83
2023-01-26T12:01:28.765Z,5.90
2023-01-26T12:03:58.108Z,5.87
2023-01-26T12:06:32.689Z,5.77
2023-01-26T12:09:04.183Z,6.80
2023-01-26T12:11:36.597Z,7.93
2023-01-26T12:14:13.741Z,7.33
2023-01-26T12:16:58.050Z,6.40
2023-01-26T12:19:43.824Z,8.33
2023-01-26T12:22:19.549Z,8.13
2023-01-26T12:25:17.398Z,9.77
2023-01-26T12:27:47.412Z,8.63
2023-01-26T12:30:28.468Z,7.90
2023-01-26T12:32:56.357Z,7.23
2023-01-26T12:35:37.836Z,7.17
2023-01-26T12:38:18.007Z,8.73
2023-01-26T12:40:59.425Z,9.07
2023-01-26T12:43:39.544Z,9.10
2023-01-26T12:46:09.761Z,8.63
2023-01-26T12:48:43.182Z,9.40
2023-01-26T12:51:18.960Z,8.90
2023-01-26T12:53:55.399Z,9.13
2023-01-26T12:56:27.642Z,11.90
2023-01-26T12:58:58.493Z,9.00
2023-01-26T13:01:38.249Z,11.00
2023-01-26T13:04:10.587Z,9.23
2023-01-26T13:06:39.836Z,9.47
2023-01-26T13:09:21.926Z,9.47
2023-01-26T13:11:54.805Z,9.03
2023-01-26T13:14:43.585Z,10.73
2023-01-26T13:17:48.907Z,11.67
2023-01-26T13:20:25.369Z,10.87
2023-01-26T13:22:54.667Z,10.93
2023-01-26T13:25:31.261Z,12.40
2023-01-26T13:28:00.411Z,10.67
2023-01-26T13:30:34.156Z,11.13
2023-01-26T13:33:22.403Z,11.83
2023-01-26T13:35:52.231Z,11.40
2023-01-26T13:38:32.016Z,11.70
2023-01-26T13:41:00.343Z,29.67
2023-01-26T13:43:39.257Z,12.57
2023-01-26T13:46:16.155Z,12.10
2023-01-26T13:48:48.731Z,16.40
2023-01-26T13:51:21.685Z,17.17
2023-01-26T13:53:57.841Z,13.97
2023-01-26T13:56:28.931Z,12.57
2023-01-26T13:59:09.755Z,13.17
2023-01-26T14:01:43.390Z,13.20
2023-01-26T14:04:15.532Z,11.60
2023-01-26T14:06:47.779Z,10.93
2023-01-26T14:09:17.288Z,13.03
2023-01-26T14:11:45.584Z,15.63
2023-01-26T14:14:26.911Z,19.27
2023-01-26T14:16:58.879Z,13.70
2023-01-26T14:19:28.483Z,13.20
2023-01-26T14:21:57.480Z,12.53
2023-01-26T14:24:35.402Z,12.73
2023-01-26T14:27:04.752Z,12.10
2023-01-26T14:29:37.857Z,13.73
2023-01-26T14:32:14.598Z,17.77
2023-01-26T14:34:53.055Z,14.47
2023-01-26T14:37:20.761Z,14.87
2023-01-26T14:39:49.840Z,16.53
2023-01-26T14:42:20.382Z,12.87
2023-01-26T14:44:48.533Z,16.70
2023-01-26T14:47:21.240Z,15.57
2023-01-26T14:49:54.145Z,15.73
2023-01-26T14:52:25.229Z,11.03
2023-01-26T14:54:56.393Z,11.77
2023-01-26T14:57:26.324Z,13.17
2023-01-26T14:59:57.380Z,13.50
2023-01-26T15:02:27.144Z,13.37
2023-01-26T15:04:58.563Z,11.67
2023-01-26T15:07:36.884Z,12.20
2023-01-26T15:10:28.148Z,9.93
2023-01-26T15:13:00.549Z,12.73
2023-01-26T15:15:30.301Z,9.87
2023-01-26T15:18:19.196Z,10.73
2023-01-26T15:21:00.123Z,10.67
2023-01-26T15:23:30.405Z,10.10
2023-01-26T15:26:05.899Z,10.30
2023-01-26T15:28:33.956Z,10.93
2023-01-26T15:31:02.113Z,11.97
2023-01-26T15:33:54.780Z,10.93
2023-01-26T15:36:26.308Z,10.37
2023-01-26T15:39:02.797Z,9.00
2023-01-26T15:41:32.161Z,11.43
2023-01-26T15:44:00.374Z,11.30
2023-01-26T15:46:28.588Z,10.17
2023-01-26T15:48:56.534Z,10.20
2023-01-26T15:51:24.232Z,11.87
2023-01-26T15:53:51.918Z,13.93
2023-01-26T15:56:19.611Z,14.17
2023-01-26T15:58:48.645Z,13.07
2023-01-26T16:01:19.698Z,13.17
2023-01-26T16:03:47.400Z,12.97
2023-01-26T16:06:23.924Z,12.67
2023-01-26T16:08:51.702Z,12.30
2023-01-26T16:11:20.075Z,11.30
2023-01-26T16:14:02.454Z,10.83
2023-01-26T16:16:31.600Z,10.50
2023-01-26T16:18:59.700Z,10.03
2023-01-26T16:21:31.384Z,8.90
2023-01-26T16:23:59.215Z,10.40
2023-01-26T16:26:27.764Z,8.40
2023-01-26T16:28:57.110Z,10.37
2023-01-26T16:31:27.687Z,9.37
2023-01-26T16:33:55.722Z,10.13
2023-01-26T16:36:23.979Z,9.93
2023-01-26T16:38:51.923Z,9.40
2023-01-26T16:41:24.015Z,10.53
2023-01-26T16:43:52.157Z,10.83
2023-01-26T16:46:21.344Z,10.30
2023-01-26T16:48:49.245Z,11.60
2023-01-26T16:51:20.662Z,11.70
2023-01-26T16:53:49.352Z,11.27
2023-01-26T16:56:18.677Z,11.10
2023-01-26T16:58:47.101Z,10.67
2023-01-26T17:01:22.166Z,10.80
2023-01-26T17:03:50.610Z,12.87
2023-01-26T17:06:19.708Z,10.37
2023-01-26T17:08:47.531Z,12.83
2023-01-26T17:11:20.639Z,10.57
2023-01-26T17:13:48.635Z,10.43
2023-01-26T17:16:18.292Z,10.73
2023-01-26T17:18:48.867Z,13.77
2023-01-26T17:21:18.175Z,11.27
2023-01-26T17:23:48.789Z,11.43
2023-01-26T17:26:17.622Z,10.50
2023-01-26T17:28:45.703Z,11.63
2023-01-26T17:31:17.534Z,11.60
2023-01-26T17:33:47.994Z,10.83
2023-01-26T17:36:17.103Z,11.63
2023-01-26T17:38:45.071Z,11.37
2023-01-26T17:41:12.794Z,10.70
2023-01-26T17:43:40.482Z,8.77
2023-01-26T17:46:13.041Z,10.67
2023-01-26T17:48:40.936Z,10.53
2023-01-26T17:51:12.287Z,10.90
2023-01-26T17:53:40.828Z,10.50
2023-01-26T17:56:09.385Z,11.47
2023-01-26T17:58:37.590Z,13.30
2023-01-26T18:01:08.449Z,12.20
2023-01-26T18:03:36.937Z,11.53
2023-01-26T18:06:04.947Z,11.17
2023-01-26T18:08:34.101Z,11.93
2023-01-26T18:11:03.456Z,14.97
2023-01-26T18:13:32.782Z,12.20
2023-01-26T18:16:00.915Z,13.13
2023-01-26T18:18:30.385Z,12.33
2023-01-26T18:20:58.407Z,13.17
2023-01-26T18:23:26.484Z,11.70
2023-01-26T18:25:55.674Z,14.47
2023-01-26T18:28:23.306Z,11.53
2023-01-26T18:30:51.063Z,20.27
2023-01-26T18:33:18.874Z,20.23
2023-01-26T18:35:46.534Z,13.53
2023-01-26T18:38:14.499Z,12.40
2023-01-26T18:40:42.366Z,14.37
2023-01-26T18:43:11.423Z,16.10
2023-01-26T18:45:41.980Z,16.53
2023-01-26T18:48:09.856Z,19.07
2023-01-26T18:50:38.371Z,14.13
2023-01-26T18:53:06.158Z,12.57
2023-01-26T18:55:34.536Z,12.57
2023-01-26T18:58:02.221Z,29.67
2023-01-26T19:00:31.431Z,73.33
2023-01-26T19:02:59.114Z,56.73
2023-01-26T19:05:26.794Z,64.13
2023-01-26T19:07:54.689Z,21.17
2023-01-26T19:10:22.391Z,15.10
2023-01-26T19:12:50.288Z,16.63
2023-01-26T19:15:18.181Z,18.77
2023-01-26T19:17:47.237Z,18.30
2023-01-26T19:20:15.011Z,16.27
2023-01-26T19:22:42.811Z,20.20
2023-01-26T19:25:11.162Z,21.87
2023-01-26T19:27:40.314Z,19.77
2023-01-26T19:30:09.449Z,17.07
2023-01-26T19:32:37.141Z,20.87
2023-01-26T19:35:08.932Z,20.07
2023-01-26T19:37:36.694Z,22.03
2023-01-26T19:40:04.620Z,20.33
2023-01-26T19:42:32.319Z,19.27
2023-01-26T19:44:59.993Z,19.37
2023-01-26T19:47:27.661Z,20.70
2023-01-26T19:49:55.359Z,18.93
2023-01-26T19:52:24.514Z,22.37
2023-01-26T19:54:52.193Z,19.73
2023-01-26T19:57:19.872Z,20.70
2023-01-26T19:59:47.714Z,23.30
2023-01-26T20:02:15.660Z,28.60
2023-01-26T20:04:45.184Z,25.97
2023-01-26T20:07:12.848Z,22.50
2023-01-26T20:09:41.951Z,25.07
2023-01-26T20:12:11.090Z,21.43
2023-01-26T20:14:38.780Z,29.40
2023-01-26T20:17:06.491Z,24.23
2023-01-26T20:19:35.180Z,22.40
2023-01-26T20:22:03.675Z,22.50
2023-01-26T20:24:31.408Z,22.00
2023-01-26T20:27:00.516Z,21.47
2023-01-26T20:29:28.384Z,21.80
2023-01-26T20:31:56.310Z,23.07
2023-01-26T20:34:25.110Z,22.70
2023-01-26T20:36:56.372Z,21.37
2023-01-26T20:39:25.275Z,19.53
2023-01-26T20:41:53.545Z,20.83
2023-01-26T20:44:22.766Z,20.07
2023-01-26T20:46:50.546Z,19.17
2023-01-26T20:49:19.653Z,18.43
2023-01-26T20:51:47.645Z,19.17
2023-01-26T20:54:16.932Z,18.97
2023-01-26T20:56:46.262Z,16.83
2023-01-26T20:59:14.220Z,18.40
2023-01-26T21:01:43.271Z,15.57
2023-01-26T21:04:11.090Z,16.10
2023-01-26T21:06:39.596Z,17.10
2023-01-26T21:09:07.320Z,18.03
2023-01-26T21:11:36.369Z,18.07
2023-01-26T21:14:04.732Z,17.70
2023-01-26T21:16:35.586Z,16.97
2023-01-26T21:19:04.841Z,17.00
2023-01-26T21:21:32.519Z,15.70
2023-01-26T21:24:00.234Z,16.23
2023-01-26T21:26:28.774Z,16.97
2023-01-26T21:28:58.321Z,17.20
2023-01-26T21:31:27.522Z,18.90
2023-01-26T21:33:55.961Z,17.33
2023-01-26T21:36:26.990Z,15.90
2023-01-26T21:38:56.664Z,17.43
2023-01-26T21:41:45.925Z,14.40
2023-01-26T21:44:15.404Z,16.33
2023-01-26T21:46:45.030Z,16.10
2023-01-26T21:49:13.810Z,17.47
2023-01-26T21:52:00.414Z,17.80
2023-01-26T21:54:29.899Z,18.33
2023-01-26T21:56:58.302Z,17.00
2023-01-26T21:59:25.121Z,18.10
2023-01-26T22:01:54.062Z,19.67
2023-01-26T22:04:23.513Z,19.70
2023-01-26T22:06:53.074Z,19.70
2023-01-26T22:09:21.270Z,20.37
2023-01-26T22:11:50.613Z,19.67
2023-01-26T22:14:20.880Z,20.47
2023-01-26T22:16:48.651Z,17.77
2023-01-26T22:19:16.676Z,20.13
2023-01-26T22:21:44.700Z,19.37
2023-01-26T22:24:15.427Z,23.20
2023-01-26T22:26:43.430Z,21.10
2023-01-26T22:29:12.331Z,26.97
2023-01-26T22:31:40.462Z,26.17
2023-01-26T22:34:08.246Z,23.77
2023-01-26T22:36:35.977Z,23.70
2023-01-26T22:39:04.549Z,22.13
2023-01-26T22:41:34.393Z,25.03
2023-01-26T22:44:02.614Z,31.60
2023-01-26T22:46:31.711Z,27.57
2023-01-26T22:49:00.016Z,23.40
2023-01-26T22:51:29.657Z,23.27
2023-01-26T22:53:58.736Z,23.20
2023-01-26T22:56:27.556Z,22.90
2023-01-26T22:58:59.936Z,25.90
2023-01-26T23:01:30.147Z,25.57
2023-01-26T23:03:59.798Z,22.53
2023-01-26T23:06:28.144Z,21.53
2023-01-26T23:08:58.068Z,24.50
2023-01-26T23:11:27.533Z,21.20
2023-01-26T23:13:58.397Z,23.90
2023-01-26T23:16:27.571Z,22.27
2023-01-26T23:18:57.754Z,23.90
2023-01-26T23:21:26.812Z,19.83
2023-01-26T23:23:54.724Z,20.77
2023-01-26T23:26:22.925Z,21.27
2023-01-26T23:28:50.734Z,21.63
2023-01-26T23:31:20.188Z,21.93
2023-01-26T23:33:48.635Z,23.43
2023-01-26T23:36:16.591Z,21.83
2023-01-26T23:38:45.650Z,23.83
2023-01-26T23:41:14.128Z,22.63
2023-01-26T23:43:42.038Z,21.97
2023-01-26T23:46:11.016Z,21.30
2023-01-26T23:48:40.406Z,21.87
2023-01-26T23:51:10.231Z,22.27
2023-01-26T23:53:38.477Z,26.20
2023-01-26T23:56:08.525Z,23.27
2023-01-26T23:58:37.276Z,21.37
